sensor_id;sensor_type;location;lat;lon;timestamp;temperature;humidity
40758;DHT22;26462;47.384;19.218;2023-12-29T00:02:00;1.40;99.90
40758;DHT22;26462;47.384;19.218;2023-12-29T00:04:31;1.40;99.90
40758;DHT22;26462;47.384;19.218;2023-12-29T00:06:59;1.40;99.90
40758;DHT22;26462;47.384;19.218;2023-12-29T00:09:31;1.40;99.90
40758;DHT22;26462;47.384;19.218;2023-12-29T00:12:06;1.40;99.90
40758;DHT22;26462;47.384;19.218;2023-12-29T00:14:39;1.40;99.90
40758;DHT22;26462;47.384;19.218;2023-12-29T00:17:08;1.40;99.90
40758;DHT22;26462;47.384;19.218;2023-12-29T00:19:38;1.40;99.90
40758;DHT22;26462;47.384;19.218;2023-12-29T00:22:06;1.40;99.90
40758;DHT22;26462;47.384;19.218;2023-12-29T00:24:36;1.50;99.90
40758;DHT22;26462;47.384;19.218;2023-12-29T00:27:06;1.40;99.90
40758;DHT22;26462;47.384;19.218;2023-12-29T00:29:35;1.50;99.90
40758;DHT22;26462;47.384;19.218;2023-12-29T00:32:04;1.50;99.90
40758;DHT22;26462;47.384;19.218;2023-12-29T00:34:33;1.50;99.90
40758;DHT22;26462;47.384;19.218;2023-12-29T00:37:04;1.70;99.90
40758;DHT22;26462;47.384;19.218;2023-12-29T00:39:33;1.50;99.90
40758;DHT22;26462;47.384;19.218;2023-12-29T00:42:07;1.50;99.90
40758;DHT22;26462;47.384;19.218;2023-12-29T00:44:36;1.50;99.90
40758;DHT22;26462;47.384;19.218;2023-12-29T00:47:05;1.50;99.90
40758;DHT22;26462;47.384;19.218;2023-12-29T00:49:33;1.60;99.90
40758;DHT22;26462;47.384;19.218;2023-12-29T00:52:04;1.70;99.90
40758;DHT22;26462;47.384;19.218;2023-12-29T00:54:34;1.50;99.90
40758;DHT22;26462;47.384;19.218;2023-12-29T00:57:03;1.50;99.90
40758;DHT22;26462;47.384;19.218;2023-12-29T00:59:32;1.50;99.90
40758;DHT22;26462;47.384;19.218;2023-12-29T01:02:01;2.40;99.90
40758;DHT22;26462;47.384;19.218;2023-12-29T01:04:30;1.90;99.90
40758;DHT22;26462;47.384;19.218;2023-12-29T01:06:59;2.80;99.90
40758;DHT22;26462;47.384;19.218;2023-12-29T01:09:30;2.70;99.90
40758;DHT22;26462;47.384;19.218;2023-12-29T01:12:00;1.50;99.90
40758;DHT22;26462;47.384;19.218;2023-12-29T01:14:29;1.50;99.90
40758;DHT22;26462;47.384;19.218;2023-12-29T01:16:59;1.40;99.90
40758;DHT22;26462;47.384;19.218;2023-12-29T01:19:28;1.40;99.90
40758;DHT22;26462;47.384;19.218;2023-12-29T01:21:57;1.50;99.90
40758;DHT22;26462;47.384;19.218;2023-12-29T01:24:26;1.40;99.90
40758;DHT22;26462;47.384;19.218;2023-12-29T01:27:09;1.50;99.90
40758;DHT22;26462;47.384;19.218;2023-12-29T01:29:40;1.50;99.90
40758;DHT22;26462;47.384;19.218;2023-12-29T01:32:07;1.50;99.90
40758;DHT22;26462;47.384;19.218;2023-12-29T01:34:38;1.50;99.90
40758;DHT22;26462;47.384;19.218;2023-12-29T01:37:10;1.50;99.90
40758;DHT22;26462;47.384;19.218;2023-12-29T01:39:39;1.70;99.90
40758;DHT22;26462;47.384;19.218;2023-12-29T01:42:11;2.00;99.90
40758;DHT22;26462;47.384;19.218;2023-12-29T01:44:40;2.90;99.90
40758;DHT22;26462;47.384;19.218;2023-12-29T01:47:13;1.50;99.90
40758;DHT22;26462;47.384;19.218;2023-12-29T01:49:44;2.20;99.90
40758;DHT22;26462;47.384;19.218;2023-12-29T01:52:14;1.60;99.90
40758;DHT22;26462;47.384;19.218;2023-12-29T01:54:46;1.50;99.90
40758;DHT22;26462;47.384;19.218;2023-12-29T01:57:18;1.70;99.90
40758;DHT22;26462;47.384;19.218;2023-12-29T01:59:47;1.80;99.90
40758;DHT22;26462;47.384;19.218;2023-12-29T02:02:17;2.30;99.90
40758;DHT22;26462;47.384;19.218;2023-12-29T02:04:46;1.50;99.90
40758;DHT22;26462;47.384;19.218;2023-12-29T02:07:16;1.80;99.90
40758;DHT22;26462;47.384;19.218;2023-12-29T02:09:46;2.00;99.90
40758;DHT22;26462;47.384;19.218;2023-12-29T02:12:17;1.70;99.90
40758;DHT22;26462;47.384;19.218;2023-12-29T02:14:47;1.50;99.90
40758;DHT22;26462;47.384;19.218;2023-12-29T02:17:22;1.50;99.90
40758;DHT22;26462;47.384;19.218;2023-12-29T02:19:54;1.50;99.90
40758;DHT22;26462;47.384;19.218;2023-12-29T02:22:26;1.70;99.90
40758;DHT22;26462;47.384;19.218;2023-12-29T02:24:56;1.40;99.90
40758;DHT22;26462;47.384;19.218;2023-12-29T02:27:34;1.40;99.90
40758;DHT22;26462;47.384;19.218;2023-12-29T02:30:17;1.50;99.90
40758;DHT22;26462;47.384;19.218;2023-12-29T02:32:48;1.50;99.90
40758;DHT22;26462;47.384;19.218;2023-12-29T02:35:23;2.20;99.90
40758;DHT22;26462;47.384;19.218;2023-12-29T02:37:57;1.30;99.90
40758;DHT22;26462;47.384;19.218;2023-12-29T02:40:34;1.40;99.90
40758;DHT22;26462;47.384;19.218;2023-12-29T02:43:04;1.50;99.90
40758;DHT22;26462;47.384;19.218;2023-12-29T02:45:33;1.40;99.90
40758;DHT22;26462;47.384;19.218;2023-12-29T02:48:02;1.60;99.90
40758;DHT22;26462;47.384;19.218;2023-12-29T02:50:32;1.50;99.90
40758;DHT22;26462;47.384;19.218;2023-12-29T02:53:02;2.70;99.90
40758;DHT22;26462;47.384;19.218;2023-12-29T02:55:34;1.50;99.90
40758;DHT22;26462;47.384;19.218;2023-12-29T02:58:03;1.50;99.90
40758;DHT22;26462;47.384;19.218;2023-12-29T03:00:33;1.50;99.90
40758;DHT22;26462;47.384;19.218;2023-12-29T03:03:03;1.50;99.90
40758;DHT22;26462;47.384;19.218;2023-12-29T03:05:33;1.00;99.90
40758;DHT22;26462;47.384;19.218;2023-12-29T03:08:03;1.50;99.90
40758;DHT22;26462;47.384;19.218;2023-12-29T03:10:37;1.50;99.90
40758;DHT22;26462;47.384;19.218;2023-12-29T03:13:07;1.50;99.90
40758;DHT22;26462;47.384;19.218;2023-12-29T03:15:37;1.50;99.90
40758;DHT22;26462;47.384;19.218;2023-12-29T03:18:09;1.50;99.90
40758;DHT22;26462;47.384;19.218;2023-12-29T03:21:01;1.50;99.90
40758;DHT22;26462;47.384;19.218;2023-12-29T03:23:29;3.30;99.90
40758;DHT22;26462;47.384;19.218;2023-12-29T03:26:00;1.40;99.90
40758;DHT22;26462;47.384;19.218;2023-12-29T03:28:29;1.50;99.90
40758;DHT22;26462;47.384;19.218;2023-12-29T03:30:58;1.40;99.90
40758;DHT22;26462;47.384;19.218;2023-12-29T03:33:30;0.70;99.90
40758;DHT22;26462;47.384;19.218;2023-12-29T03:35:59;1.70;99.90
40758;DHT22;26462;47.384;19.218;2023-12-29T03:38:29;1.50;99.90
40758;DHT22;26462;47.384;19.218;2023-12-29T03:41:02;1.50;99.90
40758;DHT22;26462;47.384;19.218;2023-12-29T03:43:30;0.70;99.90
40758;DHT22;26462;47.384;19.218;2023-12-29T03:45:59;2.40;99.90
40758;DHT22;26462;47.384;19.218;2023-12-29T03:48:29;1.40;99.90
40758;DHT22;26462;47.384;19.218;2023-12-29T03:50:58;1.40;99.90
40758;DHT22;26462;47.384;19.218;2023-12-29T03:53:26;2.30;99.90
40758;DHT22;26462;47.384;19.218;2023-12-29T03:55:55;1.30;99.90
40758;DHT22;26462;47.384;19.218;2023-12-29T03:58:25;1.30;99.90
40758;DHT22;26462;47.384;19.218;2023-12-29T04:00:54;1.40;99.90
40758;DHT22;26462;47.384;19.218;2023-12-29T04:03:23;1.50;99.90
40758;DHT22;26462;47.384;19.218;2023-12-29T04:05:55;1.40;99.90
40758;DHT22;26462;47.384;19.218;2023-12-29T04:08:24;1.40;99.90
40758;DHT22;26462;47.384;19.218;2023-12-29T04:10:53;1.30;99.90
40758;DHT22;26462;47.384;19.218;2023-12-29T04:13:22;1.30;99.90
40758;DHT22;26462;47.384;19.218;2023-12-29T04:15:55;0.60;99.90
40758;DHT22;26462;47.384;19.218;2023-12-29T04:18:24;1.70;99.90
40758;DHT22;26462;47.384;19.218;2023-12-29T04:20:56;1.30;99.90
40758;DHT22;26462;47.384;19.218;2023-12-29T04:23:25;1.20;99.90
40758;DHT22;26462;47.384;19.218;2023-12-29T04:25:54;1.00;99.90
40758;DHT22;26462;47.384;19.218;2023-12-29T04:28:22;1.20;99.90
40758;DHT22;26462;47.384;19.218;2023-12-29T04:30:55;1.20;99.90
40758;DHT22;26462;47.384;19.218;2023-12-29T04:33:24;1.20;99.90
40758;DHT22;26462;47.384;19.218;2023-12-29T04:35:52;1.20;99.90
40758;DHT22;26462;47.384;19.218;2023-12-29T04:38:21;0.30;99.90
40758;DHT22;26462;47.384;19.218;2023-12-29T04:40:50;1.30;99.90
40758;DHT22;26462;47.384;19.218;2023-12-29T04:43:19;1.20;99.90
40758;DHT22;26462;47.384;19.218;2023-12-29T04:45:48;0.10;99.90
40758;DHT22;26462;47.384;19.218;2023-12-29T04:48:18;2.10;99.90
40758;DHT22;26462;47.384;19.218;2023-12-29T04:50:47;1.20;99.90
40758;DHT22;26462;47.384;19.218;2023-12-29T04:53:16;1.40;99.90
40758;DHT22;26462;47.384;19.218;2023-12-29T04:55:45;1.30;99.90
40758;DHT22;26462;47.384;19.218;2023-12-29T04:58:13;1.20;99.90
40758;DHT22;26462;47.384;19.218;2023-12-29T05:00:43;1.50;99.90
40758;DHT22;26462;47.384;19.218;2023-12-29T05:03:12;1.30;99.90
40758;DHT22;26462;47.384;19.218;2023-12-29T05:05:42;2.20;99.90
40758;DHT22;26462;47.384;19.218;2023-12-29T05:08:13;1.30;99.90
40758;DHT22;26462;47.384;19.218;2023-12-29T05:10:42;1.30;99.90
40758;DHT22;26462;47.384;19.218;2023-12-29T05:13:11;1.30;99.90
40758;DHT22;26462;47.384;19.218;2023-12-29T05:15:40;1.30;99.90
40758;DHT22;26462;47.384;19.218;2023-12-29T05:18:09;1.30;99.90
40758;DHT22;26462;47.384;19.218;2023-12-29T05:20:38;1.30;99.90
40758;DHT22;26462;47.384;19.218;2023-12-29T05:23:09;1.50;99.90
40758;DHT22;26462;47.384;19.218;2023-12-29T05:25:38;2.00;99.90
40758;DHT22;26462;47.384;19.218;2023-12-29T05:28:07;1.60;99.90
40758;DHT22;26462;47.384;19.218;2023-12-29T05:30:36;1.40;99.90
40758;DHT22;26462;47.384;19.218;2023-12-29T05:33:06;1.30;99.90
40758;DHT22;26462;47.384;19.218;2023-12-29T05:35:34;1.10;99.90
40758;DHT22;26462;47.384;19.218;2023-12-29T05:38:04;1.00;99.90
40758;DHT22;26462;47.384;19.218;2023-12-29T05:40:34;1.30;99.90
40758;DHT22;26462;47.384;19.218;2023-12-29T05:43:03;1.30;99.90
40758;DHT22;26462;47.384;19.218;2023-12-29T05:45:32;1.10;99.90
40758;DHT22;26462;47.384;19.218;2023-12-29T05:48:01;1.20;99.90
40758;DHT22;26462;47.384;19.218;2023-12-29T05:50:31;-0.20;99.90
40758;DHT22;26462;47.384;19.218;2023-12-29T05:53:00;1.30;99.90
40758;DHT22;26462;47.384;19.218;2023-12-29T05:55:29;1.20;99.90
40758;DHT22;26462;47.384;19.218;2023-12-29T05:57:59;1.20;99.90
40758;DHT22;26462;47.384;19.218;2023-12-29T06:00:29;1.80;99.90
40758;DHT22;26462;47.384;19.218;2023-12-29T06:02:58;1.30;99.90
40758;DHT22;26462;47.384;19.218;2023-12-29T06:05:27;2.00;99.90
40758;DHT22;26462;47.384;19.218;2023-12-29T06:07:56;1.30;99.90
40758;DHT22;26462;47.384;19.218;2023-12-29T06:10:25;1.10;99.90
40758;DHT22;26462;47.384;19.218;2023-12-29T06:12:54;1.50;99.90
40758;DHT22;26462;47.384;19.218;2023-12-29T06:15:25;1.70;99.90
40758;DHT22;26462;47.384;19.218;2023-12-29T06:17:54;1.90;99.90
40758;DHT22;26462;47.384;19.218;2023-12-29T06:20:23;1.10;99.90
40758;DHT22;26462;47.384;19.218;2023-12-29T06:22:52;2.20;99.90
40758;DHT22;26462;47.384;19.218;2023-12-29T06:25:20;1.10;99.90
40758;DHT22;26462;47.384;19.218;2023-12-29T06:27:49;1.10;99.90
40758;DHT22;26462;47.384;19.218;2023-12-29T06:30:18;1.20;99.90
40758;DHT22;26462;47.384;19.218;2023-12-29T06:32:49;1.10;99.90
40758;DHT22;26462;47.384;19.218;2023-12-29T06:35:19;0.30;99.90
40758;DHT22;26462;47.384;19.218;2023-12-29T06:37:48;1.10;99.90
40758;DHT22;26462;47.384;19.218;2023-12-29T06:40:17;2.00;99.90
40758;DHT22;26462;47.384;19.218;2023-12-29T06:42:46;1.10;99.90
40758;DHT22;26462;47.384;19.218;2023-12-29T06:45:16;1.00;99.90
40758;DHT22;26462;47.384;19.218;2023-12-29T06:47:45;1.10;99.90
40758;DHT22;26462;47.384;19.218;2023-12-29T06:50:15;1.10;99.90
40758;DHT22;26462;47.384;19.218;2023-12-29T06:52:45;1.10;99.90
40758;DHT22;26462;47.384;19.218;2023-12-29T06:55:14;1.10;99.90
40758;DHT22;26462;47.384;19.218;2023-12-29T06:57:43;1.10;99.90
40758;DHT22;26462;47.384;19.218;2023-12-29T07:00:12;1.10;99.90
40758;DHT22;26462;47.384;19.218;2023-12-29T07:02:44;1.10;99.90
40758;DHT22;26462;47.384;19.218;2023-12-29T07:05:40;1.10;99.90
40758;DHT22;26462;47.384;19.218;2023-12-29T07:09:50;1.10;99.90
40758;DHT22;26462;47.384;19.218;2023-12-29T07:13:22;1.00;99.90
40758;DHT22;26462;47.384;19.218;2023-12-29T07:17:19;1.10;99.90
40758;DHT22;26462;47.384;19.218;2023-12-29T07:47:32;1.20;99.90
40758;DHT22;26462;47.384;19.218;2023-12-29T07:50:00;1.20;99.90
40758;DHT22;26462;47.384;19.218;2023-12-29T07:52:30;1.20;99.90
40758;DHT22;26462;47.384;19.218;2023-12-29T07:54:59;1.30;99.90
40758;DHT22;26462;47.384;19.218;2023-12-29T07:57:27;0.80;99.90
40758;DHT22;26462;47.384;19.218;2023-12-29T07:59:56;1.20;99.90
40758;DHT22;26462;47.384;19.218;2023-12-29T08:02:24;1.50;99.90
40758;DHT22;26462;47.384;19.218;2023-12-29T08:04:56;1.30;99.90
40758;DHT22;26462;47.384;19.218;2023-12-29T08:07:24;1.20;99.90
40758;DHT22;26462;47.384;19.218;2023-12-29T08:09:53;1.20;99.90
40758;DHT22;26462;47.384;19.218;2023-12-29T08:12:23;1.30;99.90
40758;DHT22;26462;47.384;19.218;2023-12-29T08:14:55;1.30;99.90
40758;DHT22;26462;47.384;19.218;2023-12-29T08:17:27;1.40;99.90
40758;DHT22;26462;47.384;19.218;2023-12-29T08:19:58;1.30;99.90
40758;DHT22;26462;47.384;19.218;2023-12-29T08:22:29;2.40;99.90
40758;DHT22;26462;47.384;19.218;2023-12-29T08:25:02;1.40;99.90
40758;DHT22;26462;47.384;19.218;2023-12-29T08:27:31;1.40;99.90
40758;DHT22;26462;47.384;19.218;2023-12-29T08:30:00;1.40;99.90
40758;DHT22;26462;47.384;19.218;2023-12-29T08:32:32;1.50;99.90
40758;DHT22;26462;47.384;19.218;2023-12-29T08:35:03;0.70;99.90
40758;DHT22;26462;47.384;19.218;2023-12-29T08:37:33;1.60;99.90
40758;DHT22;26462;47.384;19.218;2023-12-29T08:40:02;1.70;99.90
40758;DHT22;26462;47.384;19.218;2023-12-29T08:42:31;1.70;99.90
40758;DHT22;26462;47.384;19.218;2023-12-29T08:45:00;1.80;99.90
40758;DHT22;26462;47.384;19.218;2023-12-29T08:47:34;2.00;99.90
40758;DHT22;26462;47.384;19.218;2023-12-29T08:50:09;1.90;99.90
40758;DHT22;26462;47.384;19.218;2023-12-29T08:52:38;1.90;99.90
40758;DHT22;26462;47.384;19.218;2023-12-29T08:55:07;2.00;99.90
40758;DHT22;26462;47.384;19.218;2023-12-29T08:57:38;2.00;99.90
40758;DHT22;26462;47.384;19.218;2023-12-29T09:00:07;2.10;99.90
40758;DHT22;26462;47.384;19.218;2023-12-29T09:02:37;2.10;99.90
40758;DHT22;26462;47.384;19.218;2023-12-29T09:05:07;2.20;99.90
40758;DHT22;26462;47.384;19.218;2023-12-29T09:07:36;2.20;99.90
40758;DHT22;26462;47.384;19.218;2023-12-29T09:10:05;2.20;99.90
40758;DHT22;26462;47.384;19.218;2023-12-29T09:12:35;2.30;99.90
40758;DHT22;26462;47.384;19.218;2023-12-29T09:15:05;2.40;99.90
40758;DHT22;26462;47.384;19.218;2023-12-29T09:17:33;2.40;99.90
40758;DHT22;26462;47.384;19.218;2023-12-29T09:20:02;2.50;99.90
40758;DHT22;26462;47.384;19.218;2023-12-29T09:22:38;2.50;99.90
40758;DHT22;26462;47.384;19.218;2023-12-29T09:25:07;2.60;99.90
40758;DHT22;26462;47.384;19.218;2023-12-29T09:27:36;2.70;99.90
40758;DHT22;26462;47.384;19.218;2023-12-29T09:30:05;2.80;99.90
40758;DHT22;26462;47.384;19.218;2023-12-29T09:32:34;2.90;99.90
40758;DHT22;26462;47.384;19.218;2023-12-29T09:35:03;3.00;99.90
40758;DHT22;26462;47.384;19.218;2023-12-29T09:37:32;3.10;99.90
40758;DHT22;26462;47.384;19.218;2023-12-29T09:40:02;3.20;99.90
40758;DHT22;26462;47.384;19.218;2023-12-29T09:42:32;3.30;99.90
40758;DHT22;26462;47.384;19.218;2023-12-29T09:45:02;3.50;99.90
40758;DHT22;26462;47.384;19.218;2023-12-29T09:47:38;3.60;99.90
40758;DHT22;26462;47.384;19.218;2023-12-29T09:50:07;3.70;99.90
40758;DHT22;26462;47.384;19.218;2023-12-29T09:52:40;3.80;99.90
40758;DHT22;26462;47.384;19.218;2023-12-29T09:55:11;3.80;99.90
40758;DHT22;26462;47.384;19.218;2023-12-29T09:57:40;3.80;99.90
40758;DHT22;26462;47.384;19.218;2023-12-29T10:00:11;3.90;99.90
40758;DHT22;26462;47.384;19.218;2023-12-29T10:02:40;4.00;99.90
40758;DHT22;26462;47.384;19.218;2023-12-29T10:05:09;4.10;99.90
40758;DHT22;26462;47.384;19.218;2023-12-29T10:07:39;4.10;99.90
40758;DHT22;26462;47.384;19.218;2023-12-29T10:10:08;4.20;99.90
40758;DHT22;26462;47.384;19.218;2023-12-29T10:12:44;4.20;99.90
40758;DHT22;26462;47.384;19.218;2023-12-29T10:15:20;4.30;99.90
40758;DHT22;26462;47.384;19.218;2023-12-29T10:17:52;4.30;99.90
40758;DHT22;26462;47.384;19.218;2023-12-29T10:20:32;4.40;99.90
40758;DHT22;26462;47.384;19.218;2023-12-29T10:23:06;4.50;99.90
40758;DHT22;26462;47.384;19.218;2023-12-29T10:25:36;4.50;99.90
40758;DHT22;26462;47.384;19.218;2023-12-29T10:28:07;4.50;99.90
40758;DHT22;26462;47.384;19.218;2023-12-29T10:30:36;4.50;99.90
40758;DHT22;26462;47.384;19.218;2023-12-29T10:33:05;4.70;99.90
40758;DHT22;26462;47.384;19.218;2023-12-29T10:35:35;4.80;99.90
40758;DHT22;26462;47.384;19.218;2023-12-29T10:38:08;4.90;99.90
40758;DHT22;26462;47.384;19.218;2023-12-29T10:40:38;5.00;99.90
40758;DHT22;26462;47.384;19.218;2023-12-29T10:43:08;5.10;99.90
40758;DHT22;26462;47.384;19.218;2023-12-29T10:45:37;5.10;99.90
40758;DHT22;26462;47.384;19.218;2023-12-29T10:48:06;5.20;99.90
40758;DHT22;26462;47.384;19.218;2023-12-29T10:50:43;5.30;99.90
40758;DHT22;26462;47.384;19.218;2023-12-29T10:53:13;5.30;99.90
40758;DHT22;26462;47.384;19.218;2023-12-29T10:55:41;5.40;99.90
40758;DHT22;26462;47.384;19.218;2023-12-29T10:58:11;5.50;99.90
40758;DHT22;26462;47.384;19.218;2023-12-29T11:00:40;5.50;99.90
40758;DHT22;26462;47.384;19.218;2023-12-29T11:03:15;5.60;99.90
40758;DHT22;26462;47.384;19.218;2023-12-29T11:05:44;5.60;99.90
40758;DHT22;26462;47.384;19.218;2023-12-29T11:08:17;5.50;99.90
40758;DHT22;26462;47.384;19.218;2023-12-29T11:10:47;5.50;99.90
40758;DHT22;26462;47.384;19.218;2023-12-29T11:13:18;5.60;99.90
40758;DHT22;26462;47.384;19.218;2023-12-29T11:15:47;5.60;99.90
40758;DHT22;26462;47.384;19.218;2023-12-29T11:18:17;5.70;99.90
40758;DHT22;26462;47.384;19.218;2023-12-29T11:20:46;5.80;99.90
40758;DHT22;26462;47.384;19.218;2023-12-29T11:23:14;5.80;99.90
40758;DHT22;26462;47.384;19.218;2023-12-29T11:25:44;5.80;99.90
40758;DHT22;26462;47.384;19.218;2023-12-29T11:28:13;5.90;99.90
40758;DHT22;26462;47.384;19.218;2023-12-29T11:30:44;6.00;99.90
40758;DHT22;26462;47.384;19.218;2023-12-29T11:33:17;6.00;99.90
40758;DHT22;26462;47.384;19.218;2023-12-29T11:35:51;6.00;99.90
40758;DHT22;26462;47.384;19.218;2023-12-29T11:38:37;6.10;99.90
40758;DHT22;26462;47.384;19.218;2023-12-29T11:41:13;6.20;99.90
40758;DHT22;26462;47.384;19.218;2023-12-29T11:43:44;6.30;99.90
40758;DHT22;26462;47.384;19.218;2023-12-29T11:46:35;6.30;99.90
40758;DHT22;26462;47.384;19.218;2023-12-29T11:49:05;6.40;99.90
40758;DHT22;26462;47.384;19.218;2023-12-29T11:51:35;6.40;99.90
40758;DHT22;26462;47.384;19.218;2023-12-29T11:54:04;6.50;99.90
40758;DHT22;26462;47.384;19.218;2023-12-29T11:56:38;6.50;99.90
40758;DHT22;26462;47.384;19.218;2023-12-29T11:59:18;6.50;99.90
40758;DHT22;26462;47.384;19.218;2023-12-29T12:01:50;6.50;99.90
40758;DHT22;26462;47.384;19.218;2023-12-29T12:07:17;6.40;99.90
40758;DHT22;26462;47.384;19.218;2023-12-29T12:09:46;6.40;99.90
40758;DHT22;26462;47.384;19.218;2023-12-29T12:12:38;6.50;99.90
40758;DHT22;26462;47.384;19.218;2023-12-29T12:15:33;6.60;99.90
40758;DHT22;26462;47.384;19.218;2023-12-29T12:18:05;6.70;99.90
40758;DHT22;26462;47.384;19.218;2023-12-29T12:20:35;6.70;99.90
40758;DHT22;26462;47.384;19.218;2023-12-29T12:23:10;6.70;99.90
40758;DHT22;26462;47.384;19.218;2023-12-29T12:25:39;6.70;99.90
40758;DHT22;26462;47.384;19.218;2023-12-29T12:28:09;6.80;99.90
40758;DHT22;26462;47.384;19.218;2023-12-29T12:30:38;6.70;99.90
40758;DHT22;26462;47.384;19.218;2023-12-29T12:33:08;6.80;99.90
40758;DHT22;26462;47.384;19.218;2023-12-29T12:35:39;6.70;99.90
40758;DHT22;26462;47.384;19.218;2023-12-29T12:38:08;6.70;99.90
40758;DHT22;26462;47.384;19.218;2023-12-29T12:40:37;6.80;99.90
40758;DHT22;26462;47.384;19.218;2023-12-29T12:43:06;6.80;99.90
40758;DHT22;26462;47.384;19.218;2023-12-29T12:45:40;6.90;99.90
40758;DHT22;26462;47.384;19.218;2023-12-29T12:48:14;6.80;99.90
40758;DHT22;26462;47.384;19.218;2023-12-29T12:50:48;6.80;99.90
40758;DHT22;26462;47.384;19.218;2023-12-29T12:53:17;6.80;99.90
40758;DHT22;26462;47.384;19.218;2023-12-29T12:55:48;6.80;99.90
40758;DHT22;26462;47.384;19.218;2023-12-29T12:58:17;6.90;99.90
40758;DHT22;26462;47.384;19.218;2023-12-29T13:00:48;6.90;99.90
40758;DHT22;26462;47.384;19.218;2023-12-29T13:03:22;6.90;99.90
40758;DHT22;26462;47.384;19.218;2023-12-29T13:05:51;6.90;99.90
40758;DHT22;26462;47.384;19.218;2023-12-29T13:08:20;6.90;99.90
40758;DHT22;26462;47.384;19.218;2023-12-29T13:11:01;6.90;99.90
40758;DHT22;26462;47.384;19.218;2023-12-29T13:13:38;7.00;99.90
40758;DHT22;26462;47.384;19.218;2023-12-29T13:16:06;7.10;99.90
40758;DHT22;26462;47.384;19.218;2023-12-29T13:18:36;7.10;99.90
40758;DHT22;26462;47.384;19.218;2023-12-29T13:21:07;7.20;99.90
40758;DHT22;26462;47.384;19.218;2023-12-29T13:23:36;7.20;99.90
40758;DHT22;26462;47.384;19.218;2023-12-29T13:26:07;7.20;99.90
40758;DHT22;26462;47.384;19.218;2023-12-29T13:28:36;7.30;99.90
40758;DHT22;26462;47.384;19.218;2023-12-29T13:31:07;7.20;99.90
40758;DHT22;26462;47.384;19.218;2023-12-29T13:33:48;7.20;99.90
40758;DHT22;26462;47.384;19.218;2023-12-29T13:36:25;7.20;99.90
40758;DHT22;26462;47.384;19.218;2023-12-29T13:38:59;7.10;99.90
40758;DHT22;26462;47.384;19.218;2023-12-29T13:41:32;7.10;99.90
40758;DHT22;26462;47.384;19.218;2023-12-29T13:44:01;7.10;99.90
40758;DHT22;26462;47.384;19.218;2023-12-29T13:46:30;7.00;99.90
40758;DHT22;26462;47.384;19.218;2023-12-29T13:49:01;7.00;99.90
40758;DHT22;26462;47.384;19.218;2023-12-29T13:51:31;7.10;99.90
40758;DHT22;26462;47.384;19.218;2023-12-29T13:54:00;7.10;99.90
40758;DHT22;26462;47.384;19.218;2023-12-29T13:56:29;7.10;99.90
40758;DHT22;26462;47.384;19.218;2023-12-29T13:58:57;6.90;99.90
40758;DHT22;26462;47.384;19.218;2023-12-29T14:01:35;6.90;99.90
40758;DHT22;26462;47.384;19.218;2023-12-29T14:04:07;6.90;99.90
40758;DHT22;26462;47.384;19.218;2023-12-29T14:06:42;6.90;99.90
40758;DHT22;26462;47.384;19.218;2023-12-29T14:09:14;6.90;99.90
40758;DHT22;26462;47.384;19.218;2023-12-29T14:11:45;6.80;99.90
40758;DHT22;26462;47.384;19.218;2023-12-29T14:14:14;6.70;99.90
40758;DHT22;26462;47.384;19.218;2023-12-29T14:16:49;6.70;99.90
40758;DHT22;26462;47.384;19.218;2023-12-29T14:19:19;6.60;99.90
40758;DHT22;26462;47.384;19.218;2023-12-29T14:21:50;6.60;99.90
40758;DHT22;26462;47.384;19.218;2023-12-29T14:24:21;6.60;99.90
40758;DHT22;26462;47.384;19.218;2023-12-29T14:26:56;6.60;99.90
40758;DHT22;26462;47.384;19.218;2023-12-29T14:29:24;6.50;99.90
40758;DHT22;26462;47.384;19.218;2023-12-29T14:31:52;6.40;99.90
40758;DHT22;26462;47.384;19.218;2023-12-29T14:34:24;6.60;99.90
40758;DHT22;26462;47.384;19.218;2023-12-29T14:36:53;6.50;99.90
40758;DHT22;26462;47.384;19.218;2023-12-29T14:39:21;6.50;99.90
40758;DHT22;26462;47.384;19.218;2023-12-29T14:41:50;6.30;99.90
40758;DHT22;26462;47.384;19.218;2023-12-29T14:44:20;6.30;99.90
40758;DHT22;26462;47.384;19.218;2023-12-29T14:46:48;6.20;99.90
40758;DHT22;26462;47.384;19.218;2023-12-29T14:49:16;6.20;99.90
40758;DHT22;26462;47.384;19.218;2023-12-29T14:51:46;6.20;99.90
40758;DHT22;26462;47.384;19.218;2023-12-29T14:54:15;6.10;99.90
40758;DHT22;26462;47.384;19.218;2023-12-29T14:56:43;6.00;99.90
40758;DHT22;26462;47.384;19.218;2023-12-29T14:59:12;5.90;99.90
40758;DHT22;26462;47.384;19.218;2023-12-29T15:01:40;5.80;99.90
40758;DHT22;26462;47.384;19.218;2023-12-29T15:04:09;5.70;99.90
40758;DHT22;26462;47.384;19.218;2023-12-29T15:06:39;5.70;99.90
40758;DHT22;26462;47.384;19.218;2023-12-29T15:09:09;5.80;99.90
40758;DHT22;26462;47.384;19.218;2023-12-29T15:11:38;5.60;99.90
40758;DHT22;26462;47.384;19.218;2023-12-29T15:14:07;5.50;99.90
40758;DHT22;26462;47.384;19.218;2023-12-29T15:16:36;5.50;99.90
40758;DHT22;26462;47.384;19.218;2023-12-29T15:19:04;5.40;99.90
40758;DHT22;26462;47.384;19.218;2023-12-29T15:21:35;5.30;99.90
40758;DHT22;26462;47.384;19.218;2023-12-29T15:24:04;5.20;99.90
40758;DHT22;26462;47.384;19.218;2023-12-29T15:26:34;5.20;99.90
40758;DHT22;26462;47.384;19.218;2023-12-29T15:29:02;5.10;99.90
40758;DHT22;26462;47.384;19.218;2023-12-29T15:31:31;5.00;99.90
40758;DHT22;26462;47.384;19.218;2023-12-29T15:33:59;5.00;99.90
40758;DHT22;26462;47.384;19.218;2023-12-29T15:36:28;5.00;99.90
40758;DHT22;26462;47.384;19.218;2023-12-29T15:38:56;4.90;99.90
40758;DHT22;26462;47.384;19.218;2023-12-29T15:41:26;4.90;99.90
40758;DHT22;26462;47.384;19.218;2023-12-29T15:43:56;4.80;99.90
40758;DHT22;26462;47.384;19.218;2023-12-29T15:46:25;4.80;99.90
40758;DHT22;26462;47.384;19.218;2023-12-29T15:48:53;4.70;99.90
40758;DHT22;26462;47.384;19.218;2023-12-29T15:51:24;4.70;99.90
40758;DHT22;26462;47.384;19.218;2023-12-29T15:53:53;4.60;99.90
40758;DHT22;26462;47.384;19.218;2023-12-29T15:56:23;4.60;99.90
40758;DHT22;26462;47.384;19.218;2023-12-29T15:58:51;4.50;99.90
40758;DHT22;26462;47.384;19.218;2023-12-29T16:01:22;4.60;99.90
40758;DHT22;26462;47.384;19.218;2023-12-29T16:03:54;4.50;99.90
40758;DHT22;26462;47.384;19.218;2023-12-29T16:06:24;4.50;99.90
40758;DHT22;26462;47.384;19.218;2023-12-29T16:08:53;4.40;99.90
40758;DHT22;26462;47.384;19.218;2023-12-29T16:11:25;4.40;99.90
40758;DHT22;26462;47.384;19.218;2023-12-29T16:13:55;4.30;99.90
40758;DHT22;26462;47.384;19.218;2023-12-29T16:16:26;4.30;99.90
40758;DHT22;26462;47.384;19.218;2023-12-29T16:18:59;4.30;99.90
40758;DHT22;26462;47.384;19.218;2023-12-29T16:21:35;4.20;99.90
40758;DHT22;26462;47.384;19.218;2023-12-29T16:24:06;4.20;99.90
40758;DHT22;26462;47.384;19.218;2023-12-29T16:26:34;4.20;99.90